Lewisetta, VA NWLON current weather conditions

sailwx.info

Wind from 244 at 17 knots gusting 21

Air temperature 14.4° C
Water temperature 6.7° C

Last reported at 2017-Jan-18 04:42 UTC.
Time now 2017-Jan-18 05:57 UTC

Location: N 37°60' W 076°28'.
View on Google Maps.

See reports from other nearby stations

  
Tides and Currents Weather Stations Pressure Air Temp Water Temp Dewpoint Dewpoint Depression Visibility Wind Speed Wind Dir Waves Ship Positions
date/time (UTC)wind fromknots sea level pressurealtimeterstation pressurevisibilityair tempwater tempwave heightnotes
2017-Jan-18 04:42 244 17 gusting 21 14.4 6.7
2017-Jan-18 04:36 245 16 gusting 21 14.4 6.7
2017-Jan-18 04:30 247 14 gusting 22 14.4 6.7
2017-Jan-18 04:24 247 13 gusting 18 14.4 6.7
2017-Jan-18 04:18 243 16 gusting 21 14.4 6.7
2017-Jan-18 04:12 244 15 gusting 20 13.9 6.7
2017-Jan-18 04:06 242 15 gusting 19 14.4 6.7
2017-Jan-18 04:00 242 17 gusting 22 14.4 6.7
2017-Jan-18 03:54 250 13 gusting 17 13.9 6.7
2017-Jan-18 03:48 248 16 gusting 20 14.4 6.7
2017-Jan-18 03:42 246 13 gusting 19 14.4 6.7
2017-Jan-18 03:36 244 13 gusting 18 14.4 6.7
2017-Jan-18 03:30 245 13 gusting 18 14.4 6.7
2017-Jan-18 03:24 243 15 gusting 19 14.4 6.7
2017-Jan-18 03:18 241 16 gusting 19 14.4 6.7
2017-Jan-18 03:12 248 13 gusting 19 13.9 6.7
2017-Jan-18 03:06 245 15 gusting 20 14.4 6.7
2017-Jan-18 03:00 239 15 gusting 20 13.9 6.7
2017-Jan-18 02:54 241 16 gusting 19 13.9 6.7
2017-Jan-18 02:48 241 16 gusting 22 13.9 6.7
2017-Jan-18 02:42 244 15 gusting 19 13.9 6.7
2017-Jan-18 02:36 244 17 gusting 22 13.9 6.7
2017-Jan-18 02:30 239 17 gusting 20 13.9 6.7
2017-Jan-18 02:24 243 17 gusting 24 13.9 6.7
2017-Jan-18 02:18 246 18 gusting 23 13.9 6.7
2017-Jan-18 02:12 242 14 gusting 19 13.9 6.7
2017-Jan-18 02:06 246 17 gusting 23 13.9 6.7
2017-Jan-18 02:00 243 15 gusting 20 13.9 6.7
2017-Jan-18 01:54 242 14 gusting 18 13.9 6.1
2017-Jan-18 01:48 240 15 gusting 23 13.9 6.1
2017-Jan-18 01:42 243 13 gusting 19 13.9 6.1
2017-Jan-18 01:36 244 15 gusting 19 13.9 6.1
2017-Jan-18 01:30 242 14 gusting 19 13.9 6.7
2017-Jan-18 01:24 236 16 gusting 20 13.9 6.1
2017-Jan-18 01:18 240 14 gusting 20 13.9 6.1
2017-Jan-18 01:12 241 16 gusting 20 13.9 6.1
2017-Jan-18 01:06 237 16 gusting 21 13.3 6.1
2017-Jan-18 01:00 239 16 gusting 20 13.3 6.1
2017-Jan-18 00:54 238 14 gusting 19 13.3 6.1
2017-Jan-18 00:48 238 13 gusting 17 13.3 6.1
2017-Jan-18 00:42 238 13 gusting 17 13.3 6.1
2017-Jan-18 00:36 238 9 gusting 12 13.3 6.1
2017-Jan-18 00:30 238 11 gusting 15 13.3 6.1
2017-Jan-18 00:24 234 14 gusting 19 13.3 6.1
2017-Jan-18 00:18 239 13 gusting 16 12.8 6.1
2017-Jan-18 00:12 237 13 gusting 18 12.8 6.1
2017-Jan-18 00:06 238 13 gusting 16 13.3 6.1
2017-Jan-18 00:00 238 13 gusting 20 13.3 6.1
2017-Jan-17 23:54 237 14 gusting 18 13.3 6.1
2017-Jan-17 23:48 235 12 gusting 15 13.3 6.1
2017-Jan-17 23:42 235 13 gusting 17 12.8 6.1
2017-Jan-17 23:36 231 13 gusting 17 12.8 6.1
2017-Jan-17 23:30 230 10 gusting 13 12.8 6.1
2017-Jan-17 23:24 226 11 gusting 14 13.3 6.1
2017-Jan-17 23:18 228 13 gusting 16 13.3 6.1
2017-Jan-17 23:12 224 11 gusting 13 12.8 6.1
2017-Jan-17 23:06 228 12 gusting 14 12.8 6.1
2017-Jan-17 23:00 229 13 gusting 16 12.8 5.6
2017-Jan-17 22:54 236 13 gusting 16 13.3 5.6
2017-Jan-17 22:48 234 13 gusting 17 13.3 5.6
2017-Jan-17 22:42 235 13 gusting 16 12.8 5.6
2017-Jan-17 22:36 237 11 gusting 15 13.3 5.6
2017-Jan-17 22:30 246 10 gusting 13 13.3 5.6
2017-Jan-17 22:24 243 10 gusting 12 13.3 5.6
2017-Jan-17 22:18 239 10 gusting 13 13.3 5.6
2017-Jan-17 22:12 236 8 gusting 11 13.3 5.6
2017-Jan-17 22:06 236 8 gusting 10 13.3 5.6
2017-Jan-17 22:00 235 10 gusting 12 13.3 5.6
2017-Jan-17 21:54 239 8 gusting 9 13.3 5.6
2017-Jan-17 21:48 230 6 gusting 9 13.3 5.6
2017-Jan-17 21:42 240 7 gusting 10 13.3 5.6
2017-Jan-17 21:36 231 7 gusting 10 13.3 5.6
2017-Jan-17 21:30 224 5 gusting 7 13.3 5.6
2017-Jan-17 21:24 228 6 gusting 6 13.3 5.6
2017-Jan-17 21:18 222 6 gusting 7 13.3 5.6
2017-Jan-17 21:12 217 6 gusting 8 13.3 5.6
2017-Jan-17 21:06 206 6 gusting 7 13.3 5.6
2017-Jan-17 21:00 213 5 gusting 6 13.3 5.6
2017-Jan-17 20:54 221 5 gusting 6 13.3 5.6
2017-Jan-17 20:48 224 5 gusting 6 13.3 6.1
2017-Jan-17 20:42 237 4 gusting 5 13.3 6.1
2017-Jan-17 20:36 229 5 gusting 6 13.3 5.6
2017-Jan-17 20:30 219 6 gusting 8 13.3 5.6
2017-Jan-17 20:24 214 7 gusting 9 13.3 6.1
2017-Jan-17 20:18 224 8 gusting 9 13.3 6.1
2017-Jan-17 20:12 235 10 gusting 13 13.3 6.1
2017-Jan-17 20:06 223 9 gusting 11 13.3 6.1
2017-Jan-17 20:00 229 8 gusting 11 13.3 6.1
2017-Jan-17 19:54 227 9 gusting 13 13.3 6.1
2017-Jan-17 19:48 230 7 gusting 8 13.3 6.1
2017-Jan-17 19:42 227 8 gusting 10 13.3 6.1
2017-Jan-17 19:36 231 6 gusting 6 13.3 6.1
2017-Jan-17 19:30 221 6 gusting 7 13.3 6.1
2017-Jan-17 19:24 228 7 gusting 8 13.3 6.1
2017-Jan-17 19:18 232 10 gusting 12 13.3 6.1
2017-Jan-17 19:12 228 11 gusting 13 13.3 6.1
2017-Jan-17 19:06 227 8 gusting 13 13.3 6.1
2017-Jan-17 19:00 232 8 gusting 10 13.3 6.1
2017-Jan-17 18:54 226 11 gusting 13 13.3 6.1
2017-Jan-17 18:48 247 8 gusting 13 13.3 6.1
2017-Jan-17 18:42 238 8 gusting 11 12.8 6.1
2017-Jan-17 18:36 236 11 gusting 12 12.8 6.1
2017-Jan-17 18:30 225 10 gusting 12 12.8 6.1
2017-Jan-17 18:24 227 9 gusting 13 12.2 6.1
2017-Jan-17 18:18 231 10 gusting 13 12.2 6.1
2017-Jan-17 18:12 240 10 gusting 13 12.2 6.1
2017-Jan-17 18:06 237 11 gusting 13 11.7 6.1
2017-Jan-17 18:00 229 13 gusting 16 11.7 6.1
2017-Jan-17 17:54 214 6 gusting 8 11.7 6.1
2017-Jan-17 17:48 235 6 gusting 8 11.7 6.1
2017-Jan-17 17:42 234 6 gusting 8 11.1 6.1
2017-Jan-17 17:36 222 6 gusting 6 11.1 6.1
2017-Jan-17 17:30 225 5 gusting 6 11.1 5.6
2017-Jan-17 17:24 228 6 gusting 8 10.6 5.6
2017-Jan-17 17:18 217 8 gusting 10 10.6 5.6
2017-Jan-17 17:12 216 7 gusting 8 10.0 5.6
2017-Jan-17 17:06 204 7 gusting 9 10.0 5.6
2017-Jan-17 17:00 210 7 gusting 10 9.4 5.6
2017-Jan-17 16:54 206 7 gusting 8 9.4 5.6
2017-Jan-17 16:48 181 4 gusting 5 8.9 5.6
2017-Jan-17 16:42 176 4 gusting 5 8.3 5.6
2017-Jan-17 16:36 198 3 gusting 4 8.3 5.6
2017-Jan-17 16:30 174 4 gusting 5 8.3 5.6
2017-Jan-17 16:24 167 4 gusting 5 7.8 5.6
2017-Jan-17 16:18 177 3 gusting 4 7.8 5.6
2017-Jan-17 16:12 182 2 gusting 3 7.8 5.6
2017-Jan-17 16:06 194 2 gusting 2 7.8 5.6
2017-Jan-17 16:00 221 2 gusting 3 7.8 5.6
2017-Jan-17 15:54 247 2 gusting 2 7.8 5.6
2017-Jan-17 15:48 255 2 gusting 3 7.8 5.6
2017-Jan-17 15:42 228 2 gusting 3 7.8 5.6
2017-Jan-17 15:36 225 2 gusting 3 7.8 5.6
2017-Jan-17 15:30 220 3 gusting 5 7.8 5.6
2017-Jan-17 14:42 206 6 gusting 6 6.7 5.6
2017-Jan-17 14:36 207 6 gusting 6 6.7 5.6
2017-Jan-17 14:30 208 6 gusting 6 6.7 5.6
2017-Jan-17 14:24 207 5 gusting 6 6.7 5.6
2017-Jan-17 14:18 212 5 gusting 6 6.7 5.6
2017-Jan-17 14:12 221 5 gusting 6 6.7 5.6
2017-Jan-17 14:06 207 6 gusting 7 6.7 5.6
2017-Jan-17 14:00 205 6 gusting 6 6.7 5.6
2017-Jan-17 13:54 204 6 gusting 6 6.7 5.6
2017-Jan-17 13:48 193 6 gusting 6 6.7 5.6
2017-Jan-17 13:42 191 6 gusting 7 6.7 5.6
2017-Jan-17 13:36 191 6 gusting 6 6.7 5.6
2017-Jan-17 13:30 186 6 gusting 6 6.1 5.6
2017-Jan-17 13:24 193 6 gusting 7 6.1 5.6
2017-Jan-17 13:18 190 5 gusting 6 6.1 5.6
2017-Jan-17 13:12 198 6 gusting 6 6.1 5.6
2017-Jan-17 13:06 203 6 gusting 7 6.1 5.6
2017-Jan-17 13:00 200 6 gusting 7 6.1 5.6
2017-Jan-17 12:54 194 6 gusting 7 6.1 5.6
2017-Jan-17 12:48 196 6 gusting 7 6.1 5.6
2017-Jan-17 12:42 191 7 gusting 9 6.1 5.6
2017-Jan-17 12:36 195 7 gusting 9 6.1 5.6
2017-Jan-17 12:30 197 7 gusting 7 6.1 5.6
2017-Jan-17 12:24 203 6 gusting 7 6.1 5.6
2017-Jan-17 12:18 196 6 gusting 7 6.1 5.6
2017-Jan-17 12:12 186 6 gusting 6 5.6 5.6
2017-Jan-17 12:06 186 6 gusting 6 5.6 5.6
2017-Jan-17 12:00 181 5 gusting 6 5.6 5.6
2017-Jan-17 11:54 184 5 gusting 6 5.6 5.6
2017-Jan-17 11:48 183 4 gusting 5 5.6 5.6
2017-Jan-17 11:42 190 3 gusting 4 5.6 5.6
2017-Jan-17 11:36 179 3 gusting 4 5.6 5.6
2017-Jan-17 11:30 182 4 gusting 6 5.6 5.6
2017-Jan-17 11:24 176 5 gusting 5 5.6 5.6
2017-Jan-17 11:18 175 3 gusting 5 5.6 5.6
2017-Jan-17 11:12 174 3 gusting 5 5.6 5.6
2017-Jan-17 11:06 182 4 gusting 5 5.6 5.6
2017-Jan-17 11:00 183 5 gusting 6 5.6 5.6
2017-Jan-17 10:54 183 4 gusting 5 5.6 5.6
2017-Jan-17 10:48 188 4 gusting 5 5.6 5.6
2017-Jan-17 10:42 190 5 gusting 6 5.6 5.6
2017-Jan-17 10:36 199 6 gusting 6 5.6 5.6
2017-Jan-17 10:30 200 5 gusting 5 5.6 5.6
2017-Jan-17 10:24 196 4 gusting 5 5.6 5.6
2017-Jan-17 10:18 210 3 gusting 4 5.6 5.6
2017-Jan-17 10:12 207 5 gusting 6 5.6 5.6
2017-Jan-17 10:06 201 4 gusting 5 5.6 5.6
2017-Jan-17 10:00 196 5 gusting 6 5.6 5.6
2017-Jan-17 09:54 196 5 gusting 6 5.6 5.6
2017-Jan-17 09:48 200 6 gusting 6 5.6 5.6
2017-Jan-17 09:42 202 5 gusting 6 5.6 5.6
2017-Jan-17 09:36 200 5 gusting 6 5.6 5.6
2017-Jan-17 09:30 204 5 gusting 6 5.6 5.6
2017-Jan-17 09:24 224 5 gusting 6 5.6 5.6
2017-Jan-17 09:18 235 6 gusting 6 5.6 5.6
2017-Jan-17 09:12 227 4 gusting 5 5.6 5.6
2017-Jan-17 09:06 273 0 gusting 2 5.6 5.6
2017-Jan-17 09:00 222 4 gusting 5 5.6 5.6
2017-Jan-17 08:54 222 6 gusting 6 5.6 5.6
2017-Jan-17 08:48 211 6 gusting 7 5.6 5.6
2017-Jan-17 08:42 206 6 gusting 7 5.6 5.6
2017-Jan-17 08:36 212 6 gusting 7 5.6 5.6
2017-Jan-17 08:30 228 5 gusting 6 5.6 5.6
2017-Jan-17 08:24 225 7 gusting 8 5.6 5.6
2017-Jan-17 08:18 211 6 gusting 7 5.6 5.6
2017-Jan-17 08:12 218 5 gusting 6 5.6 5.6
2017-Jan-17 08:06 219 6 gusting 6 5.6 5.6
2017-Jan-17 08:00 204 6 gusting 6 5.6 5.6
2017-Jan-17 07:54 210 5 gusting 6 5.6 5.6
2017-Jan-17 07:48 190 5 gusting 6 5.6 5.6
2017-Jan-17 07:42 136 6 gusting 7 5.6 5.6
2017-Jan-17 07:36 188 3 gusting 5 6.1 5.6
2017-Jan-17 07:30 222 3 gusting 4 6.1 5.6
2017-Jan-17 07:24 239 4 gusting 5 6.1 5.6
2017-Jan-17 07:18 238 3 gusting 4 6.1 5.6
2017-Jan-17 07:12 251 3 gusting 4 6.1 5.6
2017-Jan-17 07:06 231 3 gusting 4 6.1 5.6
2017-Jan-17 07:00 226 3 gusting 4 6.1 5.6
2017-Jan-17 06:54 221 3 gusting 4 5.6 5.6
2017-Jan-17 06:48 222 3 gusting 5 5.6 5.6
2017-Jan-17 06:42 222 3 gusting 3 5.6 5.6
2017-Jan-17 06:36 215 4 gusting 5 5.6 5.6
2017-Jan-17 06:30 203 4 gusting 4 5.6 5.6
2017-Jan-17 06:24 206 4 gusting 5 5.6 5.6
2017-Jan-17 06:18 202 5 gusting 6 5.6 5.6
2017-Jan-17 06:12 200 5 gusting 6 5.6 5.6
2017-Jan-17 06:06 203 5 gusting 6 5.6 5.6
2017-Jan-17 06:00 192 5 gusting 6 5.6 5.6
2017-Jan-17 05:54 184 5 gusting 6 5.6 5.6
2017-Jan-17 05:48 186 3 gusting 4 5.6 5.6
2017-Jan-17 05:42 173 3 gusting 4 5.6 5.6
2017-Jan-17 05:36 178 3 gusting 4 5.6 5.6
2017-Jan-17 05:30 181 3 gusting 4 5.6 5.6
2017-Jan-17 05:24 170 3 gusting 4 5.6 5.6
2017-Jan-17 05:18 185 4 gusting 5 5.6 5.6
2017-Jan-17 05:12 181 3 gusting 3 5.6 5.6
2017-Jan-17 05:06 182 2 gusting 3 5.6 5.6
2017-Jan-17 05:00 177 3 gusting 4 5.6 5.6
2017-Jan-17 04:54 186 4 gusting 4 5.6 5.6
2017-Jan-17 04:48 194 3 gusting 4 5.6 5.6
2017-Jan-17 04:42 197 2 gusting 3 5.6 5.6
2017-Jan-17 04:36 198 2 gusting 3 5.6 5.6
2017-Jan-17 04:30 209 3 gusting 4 5.6 5.6
2017-Jan-17 04:24 213 3 gusting 3 5.6 5.6
2017-Jan-17 04:18 227 3 gusting 3 5.6 5.6
2017-Jan-17 04:12 239 2 gusting 3 5.6 5.6
2017-Jan-17 04:06 250 3 gusting 4 5.6 5.6
2017-Jan-17 04:00 233 2 gusting 3 5.6 5.6
2017-Jan-17 03:54 211 3 gusting 4 5.6 5.6
2017-Jan-17 03:48 195 3 gusting 4 5.6 5.6
2017-Jan-17 03:42 193 4 gusting 4 5.6 5.6
2017-Jan-17 03:36 190 4 gusting 5 5.6 5.6
2017-Jan-17 03:30 192 4 gusting 5 5.6 5.6
2017-Jan-17 03:24 202 4 gusting 4 5.6 5.6
2017-Jan-17 03:18 209 4 gusting 5 5.6 5.6
2017-Jan-17 03:12 208 4 gusting 5 5.6 5.6
2017-Jan-17 03:06 214 4 gusting 5 5.6 5.6
2017-Jan-17 03:00 226 4 gusting 5 5.6 5.6
2017-Jan-17 02:54 218 4 gusting 5 5.6 5.6
2017-Jan-17 02:48 218 4 gusting 6 5.6 5.6
2017-Jan-17 02:42 225 3 gusting 4 5.6 5.6
2017-Jan-17 02:36 223 4 gusting 5 5.6 5.6
2017-Jan-17 02:30 221 5 gusting 6 5.6 5.6
2017-Jan-17 02:24 213 4 gusting 5 5.6 5.6
2017-Jan-17 02:18 211 4 gusting 6 5.6 5.6
2017-Jan-17 02:12 215 5 gusting 6 5.6 5.6
2017-Jan-17 02:06 213 6 gusting 6 5.6 5.6
2017-Jan-17 02:00 206 5 gusting 6 5.6 5.6
2017-Jan-17 01:54 200 5 gusting 6 5.6 5.6
2017-Jan-17 01:48 202 5 gusting 6 5.6 5.6
2017-Jan-17 01:42 199 6 gusting 7 5.6 5.6
2017-Jan-17 01:36 193 6 gusting 8 5.6 5.6
2017-Jan-17 01:30 197 6 gusting 8 5.6 5.6
2017-Jan-17 01:24 189 6 gusting 7 5.6 5.6
2017-Jan-17 01:18 181 5 gusting 6 5.6 5.6
2017-Jan-17 01:12 179 6 gusting 7 5.6 5.6
2017-Jan-17 01:06 185 6 gusting 6 5.6 5.6
2017-Jan-17 01:00 186 5 gusting 6 6.1 5.6
2017-Jan-17 00:54 187 5 gusting 6 6.1 5.6
2017-Jan-17 00:48 190 5 gusting 5 6.1 5.6
2017-Jan-17 00:42 192 5 gusting 5 6.1 5.6
2017-Jan-17 00:36 188 5 gusting 6 5.6 5.6
2017-Jan-17 00:30 185 4 gusting 5 5.6 5.6
2017-Jan-17 00:24 190 4 gusting 5 5.6 5.6
2017-Jan-17 00:18 190 5 gusting 6 5.6 5.6
2017-Jan-17 00:12 190 5 gusting 6 5.6 6.1
2017-Jan-17 00:06 192 5 gusting 6 5.6 6.1
2017-Jan-17 00:00 191 5 gusting 6 5.6 6.1
2017-Jan-16 23:54 184 6 gusting 6 5.6 6.1
2017-Jan-16 23:48 187 5 gusting 6 5.6 5.6
2017-Jan-16 23:42 186 5 gusting 6 5.6 5.6
2017-Jan-16 23:36 188 5 gusting 6 5.6 5.6
2017-Jan-16 23:30 185 4 gusting 5 5.6 5.6
2017-Jan-16 23:24 181 4 gusting 5 5.6 5.6
2017-Jan-16 23:18 177 5 gusting 5 5.6 5.6
2017-Jan-16 23:12 172 4 gusting 5 5.6 5.6
2017-Jan-16 23:06 165 4 gusting 5 5.6 5.6
2017-Jan-16 23:00 168 5 gusting 6 5.6 5.6
2017-Jan-16 22:54 162 4 gusting 5 5.6 5.6
2017-Jan-16 22:48 160 4 gusting 5 5.6 5.6
2017-Jan-16 22:42 155 4 gusting 5 5.6 5.6
2017-Jan-16 22:36 137 4 gusting 5 5.6 5.6
2017-Jan-16 22:30 133 5 gusting 6 5.6 5.6
2017-Jan-16 22:24 128 6 gusting 6 5.0 5.6
2017-Jan-16 22:18 126 6 gusting 7 5.0 5.6
2017-Jan-16 22:12 126 7 gusting 7 5.0 5.6
2017-Jan-16 22:06 128 8 gusting 9 5.0 5.6
2017-Jan-16 22:00 126 9 gusting 9 5.0 5.6
2017-Jan-16 21:54 124 9 gusting 9 5.0 5.6
2017-Jan-16 21:48 121 8 gusting 9 5.0 5.6
2017-Jan-16 21:42 121 8 gusting 9 5.0 5.6
2017-Jan-16 21:36 118 8 gusting 9 4.4 5.6
2017-Jan-16 21:30 119 9 gusting 9 4.4 5.6
2017-Jan-16 21:24 116 9 gusting 9 4.4 5.6
2017-Jan-16 21:18 119 8 gusting 9 4.4 5.6
2017-Jan-16 21:12 112 9 gusting 10 4.4 5.6
2017-Jan-16 21:06 111 9 gusting 10 4.4 5.6
2017-Jan-16 21:00 107 8 gusting 9 4.4 5.6
2017-Jan-16 20:54 110 9 gusting 10 4.4 5.6
2017-Jan-16 20:48 110 9 gusting 9 4.4 5.6
2017-Jan-16 20:42 105 7 gusting 7 4.4 5.6
2017-Jan-16 20:36 099 7 gusting 8 4.4 5.6
2017-Jan-16 20:30 100 6 gusting 7 4.4 5.6
2017-Jan-16 20:24 095 6 gusting 7 4.4 5.6
2017-Jan-16 20:18 097 6 gusting 7 4.4 5.6
2017-Jan-16 20:12 092 7 gusting 7 4.4 5.6
2017-Jan-16 20:06 090 6 gusting 7 4.4 5.6
2017-Jan-16 20:00 091 6 gusting 6 4.4 5.6
2017-Jan-16 19:54 084 5 gusting 6 4.4 5.6
2017-Jan-16 19:48 088 5 gusting 6 4.4 5.6
2017-Jan-16 19:42 083 5 gusting 5 4.4 5.6
2017-Jan-16 19:36 093 5 gusting 6 4.4 5.6
2017-Jan-16 19:30 093 4 gusting 5 4.4 5.6
2017-Jan-16 19:24 104 5 gusting 5 4.4 5.6
2017-Jan-16 19:18 106 5 gusting 6 4.4 5.6
2017-Jan-16 19:12 112 5 gusting 5 4.4 5.6
2017-Jan-16 19:06 104 5 gusting 6 3.9 5.6
2017-Jan-16 19:00 095 6 gusting 6 4.4 5.6
2017-Jan-16 18:54 094 6 gusting 6 4.4 5.6
2017-Jan-16 18:48 102 6 gusting 7 4.4 5.6
2017-Jan-16 18:42 098 6 gusting 6 4.4 5.6
2017-Jan-16 18:36 098 5 gusting 6 3.9 5.6
2017-Jan-16 18:30 100 6 gusting 6 3.9 5.6
2017-Jan-16 18:24 103 6 gusting 6 3.9 5.6
2017-Jan-16 18:18 109 6 gusting 6 3.9 5.6
2017-Jan-16 18:12 107 6 gusting 6 3.9 5.6
2017-Jan-16 18:06 101 6 gusting 6 3.9 5.6
2017-Jan-16 18:00 104 6 gusting 6 3.9 5.6
2017-Jan-16 17:54 100 5 gusting 6 3.9 5.6
2017-Jan-16 17:48 094 5 gusting 6 3.9 5.6
2017-Jan-16 17:42 098 6 gusting 6 3.9 5.6
2017-Jan-16 17:36 100 6 gusting 6 3.9 5.6
2017-Jan-16 17:30 094 5 gusting 6 3.9 5.6
2017-Jan-16 17:24 097 5 gusting 5 3.9 5.6
2017-Jan-16 17:18 097 4 gusting 4 3.9 5.6
2017-Jan-16 17:12 089 4 gusting 5 3.9 5.0
2017-Jan-16 17:06 094 5 gusting 6 3.9 5.0
2017-Jan-16 17:00 091 4 gusting 5 3.9 5.0
2017-Jan-16 16:54 093 3 gusting 4 3.9 5.0
2017-Jan-16 16:48 089 5 gusting 6 3.9 5.0
2017-Jan-16 16:42 087 5 gusting 6 3.9 5.0
2017-Jan-16 16:36 094 4 gusting 5 3.9 5.6
2017-Jan-16 16:30 087 3 gusting 4 3.9 5.6
2017-Jan-16 16:24 082 3 gusting 4 3.9 5.6
2017-Jan-16 16:18 090 2 gusting 3 3.9 5.6
2017-Jan-16 16:12 086 2 gusting 3 3.9 5.0
2017-Jan-16 16:06 086 3 gusting 4 3.9 5.6
2017-Jan-16 16:00 091 4 gusting 4 3.9 5.6
2017-Jan-16 15:54 107 3 gusting 4 3.9 5.6
2017-Jan-16 15:48 092 3 gusting 4 3.9 5.6
2017-Jan-16 15:42 110 3 gusting 4 3.9 5.6
2017-Jan-16 15:36 101 4 gusting 4 3.9 5.6
2017-Jan-16 15:30 125 3 gusting 4 3.9 5.6
2017-Jan-16 15:24 106 4 gusting 5 3.9 5.6
2017-Jan-16 15:18 113 5 gusting 6 3.9 5.6
2017-Jan-16 15:12 101 5 gusting 5 3.9 5.6
2017-Jan-16 15:06 089 5 gusting 6 3.9 5.6
2017-Jan-16 15:00 090 3 gusting 4 3.9 5.6
2017-Jan-16 14:54 098 5 gusting 6 3.9 5.6
2017-Jan-16 14:48 101 5 gusting 6 3.9 5.6
2017-Jan-16 14:42 092 5 gusting 6 3.9 5.6
2017-Jan-16 14:36 087 4 gusting 5 3.9 5.6
2017-Jan-16 14:30 089 5 gusting 6 3.9 5.6
2017-Jan-16 14:24 079 4 gusting 5 3.9 5.6
2017-Jan-16 14:18 081 3 gusting 5 3.9 5.6
2017-Jan-16 14:12 083 4 gusting 5 3.9 5.6
2017-Jan-16 14:06 098 3 gusting 4 3.9 5.6
2017-Jan-16 14:00 095 4 gusting 4 3.9 5.6
2017-Jan-16 13:54 095 3 gusting 4 3.9 5.6
2017-Jan-16 13:48 083 4 gusting 5 3.9 5.6
2017-Jan-16 13:42 089 4 gusting 4 3.9 5.6
2017-Jan-16 13:36 081 4 gusting 5 3.9 5.6
2017-Jan-16 13:30 082 4 gusting 5 3.9 5.6
2017-Jan-16 13:24 088 4 gusting 4 3.9 5.6
2017-Jan-16 13:18 099 3 gusting 4 3.9 5.6
2017-Jan-16 13:12 103 3 gusting 4 3.9 5.6
2017-Jan-16 13:06 090 3 gusting 4 3.9 5.6
2017-Jan-16 13:00 105 4 gusting 5 4.4 5.6
2017-Jan-16 12:54 116 5 gusting 5 4.4 5.6
2017-Jan-16 12:48 109 3 gusting 5 3.9 5.6
2017-Jan-16 12:42 103 4 gusting 4 3.9 5.6
2017-Jan-16 12:36 104 4 gusting 5 4.4 5.6
2017-Jan-16 12:30 096 4 gusting 5 4.4 5.6
2017-Jan-16 12:24 099 4 gusting 5 4.4 5.6
2017-Jan-16 12:18 098 5 gusting 6 4.4 5.6
2017-Jan-16 12:12 104 6 gusting 6 4.4 5.6
2017-Jan-16 12:06 111 5 gusting 6 4.4 5.6
2017-Jan-16 12:00 112 5 gusting 6 4.4 5.6
2017-Jan-16 11:54 107 5 gusting 5 4.4 5.6
2017-Jan-16 11:48 122 4 gusting 5 4.4 5.6
2017-Jan-16 11:42 118 5 gusting 5 4.4 5.6
2017-Jan-16 11:36 106 5 gusting 5 3.9 5.6
2017-Jan-16 11:30 111 6 gusting 7 4.4 5.6
2017-Jan-16 11:24 103 6 gusting 6 4.4 5.6
2017-Jan-16 11:18 118 6 gusting 6 4.4 5.6
2017-Jan-16 11:12 103 5 gusting 6 4.4 5.6
2017-Jan-16 11:06 111 6 gusting 6 4.4 5.6
2017-Jan-16 11:00 109 5 gusting 6 3.9 5.6
2017-Jan-16 10:54 115 6 gusting 6 3.9 5.6
2017-Jan-16 10:48 105 6 gusting 7 3.9 5.6
2017-Jan-16 10:42 100 6 gusting 6 3.9 5.6
2017-Jan-16 10:36 105 6 gusting 6 3.9 5.6
2017-Jan-16 10:30 096 6 gusting 7 3.9 5.6
2017-Jan-16 10:24 104 6 gusting 7 3.9 5.6
2017-Jan-16 10:18 097 6 gusting 7 4.4 5.6
2017-Jan-16 10:12 104 6 gusting 7 3.9 5.6
2017-Jan-16 10:06 098 6 gusting 7 4.4 5.6
2017-Jan-16 10:00 096 6 gusting 7 4.4 5.6
2017-Jan-16 09:54 102 6 gusting 7 4.4 5.6
2017-Jan-16 09:48 104 6 gusting 6 4.4 5.6
2017-Jan-16 09:42 095 6 gusting 7 4.4 5.6
2017-Jan-16 09:36 102 6 gusting 7 4.4 5.6
2017-Jan-16 09:30 102 6 gusting 7 4.4 5.6
2017-Jan-16 09:24 099 6 gusting 8 4.4 5.6
2017-Jan-16 09:18 098 6 gusting 7 4.4 5.6
2017-Jan-16 09:12 093 6 gusting 6 4.4 5.6
2017-Jan-16 09:06 091 6 gusting 7 4.4 5.6
2017-Jan-16 09:00 095 6 gusting 7 4.4 5.6
2017-Jan-16 08:54 090 6 gusting 7 4.4 5.6
2017-Jan-16 08:48 095 6 gusting 7 4.4 5.6
2017-Jan-16 08:42 093 6 gusting 6 4.4 5.6
2017-Jan-16 08:36 098 6 gusting 6 4.4 5.6
2017-Jan-16 08:30 093 6 gusting 7 4.4 5.6
2017-Jan-16 08:24 094 6 gusting 7 4.4 5.6
2017-Jan-16 08:18 091 6 gusting 6 4.4 5.6
2017-Jan-16 08:12 086 6 gusting 7 4.4 5.6
2017-Jan-16 08:06 088 6 gusting 7 4.4 5.6
2017-Jan-16 08:00 089 6 gusting 7 4.4 5.6
2017-Jan-16 07:54 083 6 gusting 6 4.4 5.6
2017-Jan-16 07:48 076 6 gusting 6 4.4 5.6
2017-Jan-16 07:42 080 4 gusting 5 4.4 5.6
2017-Jan-16 07:36 071 4 gusting 5 4.4 5.6
2017-Jan-16 07:30 064 2 gusting 3 4.4 5.6
2017-Jan-16 07:24 074 3 gusting 4 4.4 5.6
2017-Jan-16 07:18 073 2 gusting 3 4.4 5.6
2017-Jan-16 07:12 066 3 gusting 4 4.4 5.6
2017-Jan-16 07:06 082 2 gusting 3 4.4 5.6
2017-Jan-16 07:00 072 2 gusting 3 4.4 5.6
2017-Jan-16 06:54 044 0 gusting 1 4.4 5.6
2017-Jan-16 06:48 037 1 gusting 2 4.4 5.6
2017-Jan-16 06:42 008 1 gusting 2 4.4 5.6
2017-Jan-16 06:36 031 0 gusting 1 4.4 5.6
2017-Jan-16 06:30 057 0 gusting 0 4.4 5.6
2017-Jan-16 06:24 351 0 gusting 1 4.4 5.6
2017-Jan-16 06:18 061 4.4 5.6
2017-Jan-16 06:12 141 0 gusting 0 4.4 5.6
2017-Jan-16 06:06 012 4.4 5.6
2017-Jan-16 06:00 346 0 gusting 1 4.4 5.6
2017-Jan-16 05:54 027 4.4 5.6
2017-Jan-16 05:48 064 0 gusting 1 4.4 5.6
2017-Jan-16 05:42 082 1 gusting 2 4.4 5.6
2017-Jan-16 05:36 121 0 gusting 0 4.4 5.6
2017-Jan-16 05:30 055 4.4 5.6
2017-Jan-16 05:24 049 0 gusting 1 4.4 5.6
2017-Jan-16 05:18 070 0 gusting 1 4.4 5.6
2017-Jan-16 05:12 033 1 gusting 2 4.4 5.6
2017-Jan-16 05:06 040 0 gusting 1 4.4 5.6
2017-Jan-16 05:00 031 0 gusting 1 4.4 5.6